Time;durP1;ratioP1;P1;durP2;ratioP2;P2;SDS_P1;SDS_P2;PMS_P1;PMS_P2;Temp;Humidity;BMP_temperature;BMP_pressure;BME280_temperature;BME280_humidity;BME280_pressure;Samples;Min_cycle;Max_cycle;Signal;HPM_P1;HPM_P2
2022/11/02 00:01:57;;;;;;;47.70;26.90;;;;;;;9.43;76.23;97603.59;1607058;89;25800;-74
2022/11/02 00:04:23;;;;;;;43.05;27.27;;;;;;;9.43;76.18;97605.77;1613595;87;25897;-74
2022/11/02 00:06:50;;;;;;;44.48;28.45;;;;;;;9.44;76.31;97596.66;1638159;87;25824;-74
2022/11/02 00:09:17;;;;;;;44.50;29.35;;;;;;;9.46;76.27;97604.03;1638133;87;28332;-75
2022/11/02 00:11:43;;;;;;;40.55;25.90;;;;;;;9.47;76.37;97601.66;1638057;87;25823;-78
2022/11/02 00:14:10;;;;;;;47.60;26.95;;;;;;;9.49;76.35;97607.68;1637927;87;25842;-74
2022/11/02 00:16:39;;;;;;;44.35;27.15;;;;;;;9.50;76.29;97603.13;1638254;87;25763;-74
2022/11/02 00:19:07;;;;;;;39.25;26.12;;;;;;;9.51;76.41;97606.97;1638146;87;25802;-78
2022/11/02 00:21:36;;;;;;;43.50;24.85;;;;;;;9.54;76.43;97610.59;1638139;87;27365;-76
2022/11/02 00:24:05;;;;;;;37.17;24.98;;;;;;;9.55;76.48;97612.26;1637919;87;25827;-74
2022/11/02 00:26:35;;;;;;;39.78;24.77;;;;;;;9.58;76.50;97602.44;1638165;87;25971;-76
2022/11/02 00:29:03;;;;;;;37.90;24.80;;;;;;;9.57;76.56;97598.08;1638211;87;26382;-74
2022/11/02 00:31:30;;;;;;;43.15;24.32;;;;;;;9.59;76.59;97594.67;1637915;87;25846;-74
2022/11/02 00:33:57;;;;;;;38.13;22.48;;;;;;;9.62;76.65;97598.31;1659975;85;27380;-76
2022/11/02 00:36:24;;;;;;;39.98;23.52;;;;;;;9.66;76.67;97592.81;1686428;85;25869;-74
2022/11/02 00:38:51;;;;;;;38.67;22.80;;;;;;;9.70;76.68;97590.05;1686374;85;25842;-76
2022/11/02 00:41:19;;;;;;;35.85;23.05;;;;;;;9.73;76.68;97594.21;1686348;85;25826;-75
2022/11/02 00:43:45;;;;;;;39.98;23.15;;;;;;;9.77;76.73;97583.87;1686419;85;25793;-75
2022/11/02 00:46:13;;;;;;;46.15;23.00;;;;;;;9.82;76.75;97590.81;1686416;85;27967;-75
2022/11/02 00:48:41;;;;;;;38.53;23.10;;;;;;;9.84;76.74;97590.09;1726125;81;25493;-78
2022/11/02 00:51:08;;;;;;;37.30;22.60;;;;;;;9.86;76.79;97592.08;1723183;83;25705;-74
2022/11/02 00:53:35;;;;;;;40.75;23.20;;;;;;;9.88;76.92;97588.67;1723197;83;25756;-75
2022/11/02 00:56:01;;;;;;;36.00;22.60;;;;;;;9.85;76.93;97586.38;1723183;83;25697;-74
2022/11/02 00:58:28;;;;;;;35.98;22.75;;;;;;;9.87;77.04;97594.58;1723056;83;27342;-73
2022/11/02 01:00:55;;;;;;;32.50;22.07;;;;;;;9.86;77.21;97593.43;1722643;83;25674;-76
2022/11/02 01:03:22;;;;;;;34.38;22.15;;;;;;;9.85;77.28;97591.77;1723014;82;25738;-74
2022/11/02 01:05:48;;;;;;;36.48;23.52;;;;;;;9.85;77.29;97590.42;1722789;82;25715;-74
2022/11/02 01:08:15;;;;;;;34.15;21.60;;;;;;;9.89;77.22;97590.34;1723098;83;25689;-77
2022/11/02 01:10:41;;;;;;;29.57;20.72;;;;;;;9.92;77.36;97587.21;1723021;83;28031;-73
2022/11/02 01:13:08;;;;;;;34.18;20.62;;;;;;;9.93;77.36;97584.83;1723004;83;25423;-74
2022/11/02 01:15:36;;;;;;;35.88;21.57;;;;;;;9.97;77.28;97582.89;1723140;83;25673;-75
2022/11/02 01:18:04;;;;;;;33.13;20.88;;;;;;;9.99;77.28;97582.69;1723178;83;25787;-77
2022/11/02 01:20:31;;;;;;;34.73;20.45;;;;;;;10.01;77.41;97573.88;1723143;83;25766;-77
2022/11/02 01:23:00;;;;;;;37.08;21.95;;;;;;;10.00;77.33;97578.96;1723120;83;28103;-75
2022/11/02 01:25:27;;;;;;;34.13;20.85;;;;;;;10.02;77.37;97576.89;1723134;83;25649;-74
2022/11/02 01:27:53;;;;;;;36.38;21.30;;;;;;;9.99;77.34;97567.86;1722717;83;25251;-74
2022/11/02 01:30:20;;;;;;;33.70;21.23;;;;;;;9.99;77.28;97574.08;1723104;83;25721;-76
2022/11/02 01:32:47;;;;;;;37.13;21.70;;;;;;;10.00;77.25;97571.70;1723124;83;25682;-74
2022/11/02 01:35:13;;;;;;;33.02;20.57;;;;;;;10.02;77.18;97571.50;1723122;83;27431;-78
2022/11/02 01:37:40;;;;;;;34.13;20.80;;;;;;;10.00;77.24;97566.31;1722983;83;25785;-74
2022/11/02 01:40:08;;;;;;;34.90;20.60;;;;;;;10.00;77.17;97568.17;1723328;83;25686;-74
2022/11/02 01:42:35;;;;;;;32.88;19.30;;;;;;;10.00;77.24;97568.17;1723367;83;25746;-74
2022/11/02 01:45:01;;;;;;;31.52;19.30;;;;;;;9.99;77.25;97562.46;1723021;83;25741;-77
2022/11/02 01:47:32;;;;;;;32.08;19.35;;;;;;;9.99;77.28;97565.16;1722925;83;28158;-77
2022/11/02 01:50:06;;;;;;;30.45;19.23;;;;;;;9.96;77.33;97565.05;1707072;83;25817;-74
2022/11/02 01:52:38;;;;;;;33.20;20.85;;;;;;;9.93;77.35;97567.30;1618822;88;25896;-74
2022/11/02 01:55:12;;;;;;;31.33;19.53;;;;;;;9.94;77.35;97564.92;1677601;85;26433;-75
2022/11/02 01:57:42;;;;;;;34.15;20.72;;;;;;;9.94;77.36;97572.50;1677546;85;25812;-74
2022/11/02 02:00:14;;;;;;;30.52;19.27;;;;;;;9.94;77.35;97575.20;1677703;85;28150;-75
2022/11/02 02:03:18;;;;;;;33.35;19.67;;;;;;;9.96;77.35;97579.04;1677953;85;25754;-75
2022/11/02 02:05:55;;;;;;;30.45;19.07;;;;;;;9.95;77.38;97577.37;1677288;85;25786;-77
2022/11/02 02:08:24;;;;;;;32.28;19.50;;;;;;;9.96;77.47;97577.70;1675006;85;25797;-74
2022/11/02 02:10:56;;;;;;;32.58;19.67;;;;;;;9.94;77.48;97579.76;1677730;85;25904;-74
2022/11/02 02:13:25;;;;;;;34.37;20.33;;;;;;;9.95;77.56;97579.55;1677718;85;27368;-76
2022/11/02 02:16:15;;;;;;;33.13;20.50;;;;;;;9.93;77.61;97578.09;1677413;85;26212;-78
2022/11/02 02:18:49;;;;;;;35.83;19.70;;;;;;;9.95;77.67;97586.81;1604257;89;25745;-75
2022/11/02 02:21:39;;;;;;;30.65;19.55;;;;;;;9.96;77.82;97580.39;1550091;91;25879;-77
2022/11/02 02:24:40;;;;;;;31.60;19.57;;;;;;;9.95;77.79;97580.08;1571545;90;25716;-78
2022/11/02 02:27:29;;;;;;;31.55;18.87;;;;;;;9.97;77.81;97592.33;1553412;91;27434;-74
2022/11/02 02:30:09;;;;;;;33.40;19.23;;;;;;;9.99;77.86;97588.91;1538525;93;25928;-73
2022/11/02 02:32:55;;;;;;;28.75;18.77;;;;;;;10.02;77.89;97590.38;1553784;91;25793;-74
2022/11/02 02:35:30;;;;;;;29.55;19.23;;;;;;;10.04;77.96;97591.81;1553582;92;25842;-74
2022/11/02 02:38:35;;;;;;;31.20;18.12;;;;;;;10.05;77.87;97594.00;1505391;95;25798;-75
2022/11/02 02:41:16;;;;;;;29.35;18.42;;;;;;;10.07;77.98;97589.23;1529824;92;27461;-73
2022/11/02 02:43:55;;;;;;;29.20;18.87;;;;;;;10.05;78.04;97595.34;1526803;93;25967;-74
2022/11/02 02:46:29;;;;;;;31.17;19.98;;;;;;;10.08;78.17;97592.25;1530074;93;26926;-74
2022/11/02 02:48:58;;;;;;;28.83;18.87;;;;;;;10.05;78.13;97589.95;1565712;88;25754;-74
2022/11/02 02:51:31;;;;;;;34.10;20.10;;;;;;;10.07;78.18;97595.46;1589628;90;25803;-78
2022/11/02 02:54:06;;;;;;;33.92;18.57;;;;;;;10.08;78.29;97598.48;1539775;93;27414;-77
2022/11/02 02:56:37;;;;;;;29.02;18.52;;;;;;;10.08;78.28;97601.69;1493686;94;26517;-74
2022/11/02 02:59:28;;;;;;;33.48;18.60;;;;;;;10.11;78.35;97605.34;1493431;96;25882;-73
2022/11/02 03:01:56;;;;;;;31.73;19.20;;;;;;;10.11;78.37;97606.17;1494150;96;25751;-75
2022/11/02 03:04:23;;;;;;;30.92;19.32;;;;;;;10.14;78.41;97605.45;1513927;94;26647;-74
2022/11/02 03:06:53;;;;;;;28.45;18.27;;;;;;;10.14;78.35;97604.94;1495344;94;27430;-75
2022/11/02 03:09:40;;;;;;;28.00;18.80;;;;;;;10.15;78.42;97603.88;1514172;93;26000;-75
2022/11/02 03:12:46;;;;;;;28.12;19.15;;;;;;;10.15;78.42;97603.04;1510237;93;25763;-74
2022/11/02 03:15:39;;;;;;;34.83;18.45;;;;;;;10.17;78.47;97606.38;1534879;90;26522;-73
2022/11/02 03:18:24;;;;;;;;;;;;;;;10.19;78.43;97612.43;1548915;91;26929;-73
2022/11/02 03:21:14;;;;;;;29.42;18.25;;;;;;;10.21;78.65;97604.45;1548664;92;27487;-76
2022/11/02 03:24:03;;;;;;;30.52;17.95;;;;;;;10.20;78.62;97606.84;1548533;92;25753;-73
2022/11/02 03:26:44;;;;;;;29.90;18.70;;;;;;;10.22;78.60;97605.28;1470106;97;25828;-75
2022/11/02 03:29:16;;;;;;;31.93;18.62;;;;;;;10.23;78.66;97605.09;1463653;98;25918;-73
2022/11/02 03:31:53;;;;;;;29.90;20.20;;;;;;;10.24;78.58;97605.92;1398899;101;25866;-74
2022/11/02 03:34:31;;;;;;;27.75;18.82;;;;;;;10.24;78.61;97610.80;1400637;102;28284;-73
2022/11/02 03:37:15;;;;;;;33.33;20.85;;;;;;;10.29;78.59;97614.21;1400430;102;25873;-77
2022/11/02 03:39:47;;;;;;;33.65;20.45;;;;;;;10.32;78.53;97608.41;1400538;102;25967;-73
2022/11/02 03:42:21;;;;;;;28.43;19.47;;;;;;;10.33;78.55;97613.61;1400632;101;25837;-74
2022/11/02 03:44:52;;;;;;;32.03;19.42;;;;;;;10.33;78.52;97622.22;1399465;102;26813;-77
2022/11/02 03:47:21;;;;;;;28.30;19.17;;;;;;;10.33;78.68;97614.96;1385548;102;27467;-73
2022/11/02 03:49:51;;;;;;;31.60;18.77;;;;;;;10.32;78.65;97610.59;1387713;102;26024;-74
2022/11/02 03:52:23;;;;;;;29.92;18.95;;;;;;;10.33;78.66;97614.96;1403908;100;25814;-74
2022/11/02 03:55:16;;;;;;;29.12;18.52;;;;;;;10.33;78.66;97619.01;1426252;100;25846;-73
2022/11/02 03:57:49;;;;;;;27.20;18.98;;;;;;;10.34;78.70;97614.44;1460349;98;25939;-73
2022/11/02 04:00:25;;;;;;;29.02;19.52;;;;;;;10.33;78.74;97623.57;1435859;99;27423;-74
2022/11/02 04:02:56;;;;;;;26.48;18.12;;;;;;;10.35;78.75;97622.34;1436476;98;25885;-74
2022/11/02 04:05:33;;;;;;;33.60;19.32;;;;;;;10.35;78.73;97626.39;1459541;98;25812;-74
2022/11/02 04:16:15;;;;;;;31.85;19.62;;;;;;;10.41;78.86;97624.72;1475464;97;25897;-73
2022/11/02 04:21:27;;;;;;;31.62;17.37;;;;;;;10.44;78.75;97627.02;1475398;96;26506;-77
2022/11/02 04:26:39;;;;;;;30.15;18.02;;;;;;;10.48;78.75;97628.80;1503819;93;28088;-73
2022/11/02 04:29:06;;;;;;;35.20;19.10;;;;;;;10.49;78.67;97637.20;1578143;87;25880;-73
2022/11/02 04:31:32;;;;;;;31.52;18.85;;;;;;;10.50;78.68;97628.08;1594271;88;25378;-72
2022/11/02 04:33:59;;;;;;;34.92;19.65;;;;;;;10.48;78.71;97629.63;1594209;89;26431;-72
2022/11/02 04:36:31;;;;;;;31.90;20.40;;;;;;;10.49;78.69;97626.41;1594162;89;25865;-76
2022/11/02 04:38:58;;;;;;;33.58;19.23;;;;;;;10.51;78.71;97628.36;1594281;89;28337;-74
2022/11/02 04:41:40;;;;;;;30.92;19.50;;;;;;;10.53;78.72;97628.99;1594079;89;25764;-73
2022/11/02 04:44:12;;;;;;;33.50;18.90;;;;;;;10.53;78.69;97631.69;1594495;88;29662;-74
2022/11/02 04:46:39;;;;;;;32.17;20.73;;;;;;;10.53;78.67;97627.12;1594446;88;26060;-75
2022/11/02 04:49:08;;;;;;;30.27;19.55;;;;;;;10.53;78.64;97630.34;1594075;88;43937;-75
2022/11/02 04:51:35;;;;;;;29.92;19.25;;;;;;;10.53;78.63;97634.39;1594234;88;27602;-76
2022/11/02 04:54:02;;;;;;;27.13;18.75;;;;;;;10.53;78.58;97631.69;1593912;88;25752;-75
2022/11/02 04:56:29;;;;;;;29.87;19.65;;;;;;;10.53;78.61;97631.17;1608057;85;25853;-77
2022/11/02 04:58:58;;;;;;;26.07;17.40;;;;;;;10.53;78.59;97624.95;1664988;86;26385;-73
2022/11/02 05:01:28;;;;;;;29.75;17.70;;;;;;;10.53;78.60;97640.63;1677150;85;25798;-73
2022/11/02 05:03:55;;;;;;;25.15;17.45;;;;;;;10.53;78.59;97637.09;1697474;81;28178;-75
2022/11/02 05:06:23;;;;;;;31.35;18.45;;;;;;;10.48;78.61;97640.94;1755859;81;25678;-73
2022/11/02 05:08:50;;;;;;;31.20;18.77;;;;;;;10.46;78.64;97642.48;1756017;81;25656;-73
2022/11/02 05:11:16;;;;;;;28.92;18.20;;;;;;;10.48;78.74;97643.64;1756082;81;26524;-76
2022/11/02 05:13:44;;;;;;;28.95;16.52;;;;;;;10.49;78.76;97642.61;1756062;81;25667;-74
2022/11/02 05:16:16;;;;;;;25.02;15.83;;;;;;;10.50;78.74;97637.52;1756014;81;26904;-75
2022/11/02 05:18:43;;;;;;;23.47;16.20;;;;;;;10.49;78.76;97639.39;1755927;81;25730;-72
2022/11/02 05:21:11;;;;;;;22.82;16.67;;;;;;;10.50;78.75;97649.16;1756034;81;25739;-78
2022/11/02 05:23:38;;;;;;;27.37;17.73;;;;;;;10.49;78.70;97652.05;1756060;81;26358;-73
2022/11/02 05:26:10;;;;;;;28.67;17.15;;;;;;;10.49;78.79;97648.84;1755780;81;25973;-74
2022/11/02 05:28:37;;;;;;;35.95;21.12;;;;;;;10.51;78.76;97652.66;1755642;81;28211;-76
2022/11/02 05:31:04;;;;;;;47.08;26.87;;;;;;;10.51;78.75;97654.00;1755928;81;25947;-73
2022/11/02 05:33:32;;;;;;;33.42;19.92;;;;;;;10.50;78.71;97652.37;1756081;81;25741;-74
2022/11/02 05:35:59;;;;;;;32.30;20.10;;;;;;;10.50;78.76;97655.06;1756134;81;25660;-74
2022/11/02 05:38:27;;;;;;;33.63;20.17;;;;;;;10.48;78.80;97654.44;1755880;81;25639;-76
2022/11/02 05:40:58;;;;;;;33.45;20.52;;;;;;;10.46;78.84;97652.77;1756127;81;28186;-75
2022/11/02 05:43:25;;;;;;;37.33;22.52;;;;;;;10.50;78.90;97661.81;1756265;81;25660;-73
2022/11/02 05:46:01;;;;;;;41.40;21.87;;;;;;;10.50;78.90;97664.00;1756150;81;25390;-73
2022/11/02 05:48:32;;;;;;;38.73;20.80;;;;;;;10.49;78.89;97657.45;1756161;81;25675;-73
2022/11/02 05:51:02;;;;;;;33.77;19.43;;;;;;;10.45;78.77;97661.90;1756453;81;25533;-76
2022/11/02 05:53:32;;;;;;;34.98;20.40;;;;;;;10.39;78.71;97660.52;1756138;81;28198;-73
2022/11/02 05:56:01;;;;;;;30.05;20.35;;;;;;;10.35;78.74;97660.12;1756298;81;25734;-73
2022/11/02 05:58:28;;;;;;;34.20;18.98;;;;;;;10.32;78.65;97659.16;1666362;85;25831;-73
2022/11/02 06:01:01;;;;;;;33.98;21.10;;;;;;;10.29;78.56;97669.01;1639130;86;25863;-73
2022/11/02 06:03:29;;;;;;;42.23;25.92;;;;;;;10.23;78.50;97671.19;1666201;84;25785;-72
2022/11/02 06:06:02;;;;;;;35.50;24.45;;;;;;;10.17;78.48;97668.41;1677823;85;27446;-72
2022/11/02 06:08:38;;;;;;;35.35;20.85;;;;;;;10.14;78.50;97672.38;1691769;84;25833;-74
2022/11/02 06:11:10;;;;;;;30.08;19.98;;;;;;;10.08;78.46;97675.86;1691833;83;25738;-76
2022/11/02 06:13:37;;;;;;;30.57;17.27;;;;;;;10.06;78.53;97674.71;1692041;84;25688;-73
2022/11/02 06:16:08;;;;;;;27.80;17.70;;;;;;;10.06;78.44;97686.02;1692030;84;25615;-74
2022/11/02 06:18:36;;;;;;;27.90;17.07;;;;;;;10.02;78.44;97681.53;1691855;84;28263;-73
2022/11/02 06:21:04;;;;;;;29.92;17.07;;;;;;;10.02;78.55;97679.38;1691946;84;25983;-76
2022/11/02 06:23:30;;;;;;;24.12;16.65;;;;;;;10.02;78.55;97685.58;1692036;84;25805;-75
2022/11/02 06:25:59;;;;;;;23.02;14.45;;;;;;;10.02;78.46;97687.47;1691883;84;26524;-73
2022/11/02 06:28:27;;;;;;;28.80;14.53;;;;;;;10.02;78.41;97684.77;1691592;84;25782;-73
2022/11/02 06:30:53;;;;;;;25.50;15.75;;;;;;;10.00;78.39;97679.58;1691810;84;27444;-73
2022/11/02 06:33:21;;;;;;;21.35;14.10;;;;;;;10.03;78.54;97683.71;1691797;84;25760;-76
2022/11/02 06:35:51;;;;;;;24.80;13.80;;;;;;;10.08;78.66;97684.78;1691586;84;25804;-76
2022/11/02 06:38:18;;;;;;;25.43;13.93;;;;;;;10.14;78.78;97686.38;1638666;87;26472;-76
2022/11/02 06:40:57;;;;;;;17.55;12.93;;;;;;;10.19;78.98;97680.70;1638730;87;25796;-74
2022/11/02 06:43:25;;;;;;;26.25;13.70;;;;;;;10.23;79.04;97684.67;1637486;87;28252;-74
2022/11/02 06:45:55;;;;;;;21.40;14.65;;;;;;;10.27;79.10;97688.61;1638551;87;25816;-75
2022/11/02 06:48:23;;;;;;;22.87;15.15;;;;;;;10.32;79.10;97688.02;1638724;87;25737;-73
2022/11/02 06:50:50;;;;;;;28.12;15.13;;;;;;;10.35;79.10;97684.40;1638694;87;26444;-73
2022/11/02 06:53:17;;;;;;;29.45;16.52;;;;;;;10.40;79.12;97687.81;1638587;87;25880;-73
2022/11/02 06:55:44;;;;;;;41.10;16.67;;;;;;;10.45;79.24;97694.28;1639532;86;27374;-73
2022/11/02 06:58:10;;;;;;;27.93;15.63;;;;;;;10.50;79.31;97692.85;1644018;87;25751;-73
2022/11/02 07:00:37;;;;;;;31.00;15.58;;;;;;;10.56;79.37;97696.91;1644216;87;26710;-76
2022/11/02 07:03:08;;;;;;;35.08;18.75;;;;;;;10.62;79.36;97696.62;1644087;87;26431;-73
2022/11/02 07:05:35;;;;;;;28.77;18.30;;;;;;;10.68;79.37;97698.48;1656797;85;25918;-76
2022/11/02 07:08:03;;;;;;;31.35;17.50;;;;;;;10.74;79.44;97703.08;1663112;86;28438;-73
2022/11/02 07:10:30;;;;;;;28.20;17.50;;;;;;;10.75;79.53;97692.05;1663166;86;25804;-73
2022/11/02 07:12:57;;;;;;;29.50;17.37;;;;;;;10.77;79.48;97687.28;1662873;86;25731;-77
2022/11/02 07:15:26;;;;;;;40.10;21.95;;;;;;;10.82;79.48;97682.11;1663271;86;26017;-73
2022/11/02 07:17:53;;;;;;;38.50;21.97;;;;;;;10.89;79.52;97679.91;1663216;86;26565;-77
2022/11/02 07:20:20;;;;;;;38.67;22.52;;;;;;;10.95;79.49;97675.88;1662930;86;27444;-73
2022/11/02 07:22:56;;;;;;;36.48;22.55;;;;;;;11.04;79.44;97677.85;1663028;86;25930;-73
2022/11/02 07:25:25;;;;;;;35.88;20.00;;;;;;;11.10;79.40;97679.22;1621163;88;26832;-73
2022/11/02 07:27:53;;;;;;;36.58;21.55;;;;;;;11.18;79.37;97679.52;1621238;88;25817;-73
2022/11/02 07:30:20;;;;;;;39.45;20.80;;;;;;;11.27;79.32;97676.91;1621362;88;25891;-73
2022/11/02 07:32:46;;;;;;;33.85;21.40;;;;;;;11.37;79.27;97679.18;1621287;88;27528;-74
2022/11/02 07:35:15;;;;;;;38.95;21.33;;;;;;;11.48;79.22;97676.67;1632216;87;25746;-73
2022/11/02 07:37:41;;;;;;;36.08;19.70;;;;;;;11.61;79.21;97677.17;1643154;87;25763;-74
2022/11/02 07:40:12;;;;;;;32.80;17.85;;;;;;;11.69;79.01;97671.55;1643160;86;25681;-74
2022/11/02 07:42:45;;;;;;;31.15;17.40;;;;;;;11.80;78.93;97672.28;1643063;86;25912;-72
2022/11/02 07:45:13;;;;;;;31.17;18.05;;;;;;;11.88;78.83;97667.98;1642893;86;26863;-75
2022/11/02 07:47:44;;;;;;;31.35;18.15;;;;;;;11.96;78.75;97668.78;1643084;86;25893;-73
2022/11/02 07:50:13;;;;;;;34.78;19.05;;;;;;;12.06;78.70;97659.71;1643439;86;25768;-73
2022/11/02 07:52:50;;;;;;;28.00;15.65;;;;;;;12.18;78.67;97656.64;1643292;86;25804;-71
2022/11/02 07:55:20;;;;;;;25.37;13.65;;;;;;;12.30;78.37;97659.50;1566957;90;25868;-76
2022/11/02 07:58:00;;;;;;;26.10;14.35;;;;;;;12.46;78.23;97668.45;1564837;91;27610;-72
2022/11/02 08:00:33;;;;;;;24.07;13.95;;;;;;;12.61;78.17;97667.11;1564824;90;25828;-73
2022/11/02 08:03:02;;;;;;;26.82;14.60;;;;;;;12.82;78.09;97665.09;1564945;91;25838;-72
2022/11/02 08:05:32;;;;;;;21.85;13.40;;;;;;;13.05;78.05;97667.21;1557075;90;26502;-77
2022/11/02 08:08:13;;;;;;;24.32;13.78;;;;;;;13.29;77.94;97659.11;1575831;89;25938;-75
2022/11/02 08:10:41;;;;;;;32.10;14.53;;;;;;;13.45;77.42;97659.61;1575793;89;27389;-74
2022/11/02 08:13:10;;;;;;;25.40;12.55;;;;;;;13.48;76.88;97655.09;1575575;91;25583;-74
2022/11/02 08:15:37;;;;;;;23.85;12.40;;;;;;;13.51;76.68;97656.02;1575931;91;25353;-74
2022/11/02 08:18:13;;;;;;;19.37;11.57;;;;;;;13.54;76.53;97658.25;1576030;91;26255;-74
2022/11/02 08:20:41;;;;;;;19.48;10.13;;;;;;;13.61;76.52;97653.61;1560194;90;25584;-74
2022/11/02 08:23:10;;;;;;;13.45;9.15;;;;;;;13.65;76.20;97665.12;1575915;91;28240;-76
2022/11/02 08:25:37;;;;;;;19.80;11.10;;;;;;;13.75;76.06;97655.14;1549133;92;25877;-74
2022/11/02 08:28:06;;;;;;;21.68;10.60;;;;;;;13.86;75.95;97651.67;1547863;92;25869;-73
2022/11/02 08:30:33;;;;;;;21.15;11.03;;;;;;;13.98;75.78;97655.28;1610001;88;25704;-75
2022/11/02 08:33:06;;;;;;;17.57;10.43;;;;;;;14.11;75.89;97654.30;1588127;89;25431;-74
2022/11/02 08:35:35;;;;;;;17.37;10.18;;;;;;;14.23;75.32;97648.41;1626555;88;27357;-74
2022/11/02 08:38:01;;;;;;;16.87;11.50;;;;;;;14.29;75.12;97649.36;1626681;88;25798;-76
2022/11/02 08:40:28;;;;;;;21.33;12.90;;;;;;;14.37;75.09;97646.31;1626498;88;25830;-77
2022/11/02 08:43:01;;;;;;;19.27;10.98;;;;;;;14.47;74.84;97646.66;1622810;88;25785;-77
2022/11/02 08:45:29;;;;;;;19.77;10.40;;;;;;;14.67;74.82;97645.83;1609339;89;25358;-76
2022/11/02 08:47:56;;;;;;;15.38;9.48;;;;;;;14.94;74.44;97649.51;1609446;89;27420;-76
2022/11/02 08:50:24;;;;;;;13.93;8.98;;;;;;;15.16;74.27;97649.25;1609331;89;25515;-75
2022/11/02 08:52:50;;;;;;;12.43;8.73;;;;;;;15.37;73.71;97645.12;1641182;86;25800;-76
2022/11/02 08:55:17;;;;;;;13.93;8.60;;;;;;;15.43;73.37;97646.91;1666794;86;26540;-74
2022/11/02 08:57:51;;;;;;;14.90;8.73;;;;;;;15.46;73.13;97646.41;1666797;86;25720;-78
2022/11/02 09:00:21;;;;;;;17.67;9.90;;;;;;;15.52;72.83;97647.38;1657551;86;27390;-78
2022/11/02 09:03:10;;;;;;;17.17;10.55;;;;;;;15.66;72.70;97637.94;1622801;88;26776;-77
2022/11/02 09:05:40;;;;;;;18.20;10.15;;;;;;;15.76;72.29;97625.92;1628056;88;25917;-78
2022/11/02 09:08:15;;;;;;;19.25;10.65;;;;;;;15.91;72.00;97628.98;1626550;88;25747;-76
2022/11/02 09:10:42;;;;;;;16.12;10.48;;;;;;;15.96;71.84;97634.52;1644088;86;25875;-75
2022/11/02 09:13:12;;;;;;;16.12;11.43;;;;;;;15.99;71.46;97634.57;1645209;86;27448;-75
2022/11/02 09:15:40;;;;;;;18.30;11.53;;;;;;;16.02;71.22;97634.92;1646112;86;25776;-78
2022/11/02 09:18:08;;;;;;;17.50;10.38;;;;;;;16.01;70.94;97630.55;1644854;86;25804;-79
2022/11/02 09:20:35;;;;;;;19.90;10.88;;;;;;;15.97;70.77;97622.55;1644626;86;25950;-77
2022/11/02 09:23:01;;;;;;;17.07;11.15;;;;;;;15.92;70.75;97624.36;1646178;86;25872;-75
2022/11/02 09:25:28;;;;;;;16.37;11.33;;;;;;;15.88;70.77;97629.98;1635613;87;27405;-77
2022/11/02 09:27:56;;;;;;;14.18;10.30;;;;;;;15.83;70.57;97627.97;1635458;87;25350;-77
2022/11/02 09:30:25;;;;;;;14.23;10.10;;;;;;;15.75;70.44;97628.34;1635880;87;25846;-75
2022/11/02 09:33:03;;;;;;;12.37;9.30;;;;;;;15.73;70.45;97625.02;1635557;87;25781;-75
2022/11/02 09:35:33;;;;;;;11.68;8.38;;;;;;;15.78;70.58;97626.51;1633506;87;26070;-75
2022/11/02 09:38:00;;;;;;;10.30;8.33;;;;;;;15.77;70.28;97626.22;1635399;87;27501;-75
2022/11/02 09:40:44;;;;;;;14.73;7.00;;;;;;;15.88;70.41;97617.73;1635503;87;25793;-74
2022/11/02 09:43:49;;;;;;;13.43;8.05;;;;;;;15.92;69.95;97619.74;1596201;89;26781;-77
2022/11/02 09:46:21;;;;;;;12.75;8.75;;;;;;;16.02;69.99;97620.48;1608223;89;26441;-77
2022/11/02 09:48:56;;;;;;;18.20;8.13;;;;;;;16.29;69.94;97619.41;1583163;90;25814;-78
2022/11/02 09:51:49;;;;;;;12.23;7.78;;;;;;;16.53;69.49;97624.52;1541446;93;28234;-76
2022/11/02 09:54:39;;;;;;;22.30;13.35;;;;;;;16.76;69.38;97622.23;1541562;93;25841;-75
2022/11/02 09:57:28;;;;;;;11.05;6.53;;;;;;;17.07;69.17;97614.56;1537133;93;25882;-75
2022/11/02 09:59:56;;;;;;;19.57;9.70;;;;;;;17.27;68.26;97616.25;1533455;93;26009;-73
2022/11/02 10:02:58;;;;;;;21.07;11.50;;;;;;;17.57;68.33;97618.09;1533630;93;25802;-74
2022/11/02 10:05:52;;;;;;;20.13;10.83;;;;;;;17.87;67.85;97612.25;1538079;93;27460;-75
2022/11/02 10:08:36;;;;;;;72.62;46.00;;;;;;;18.16;66.69;97613.44;1507722;93;25844;-75
2022/11/02 10:11:37;;;;;;;164.47;98.20;;;;;;;18.38;65.57;97606.59;1502840;95;25857;-76
2022/11/02 10:14:15;;;;;;;136.43;73.17;;;;;;;18.63;65.10;97612.36;1502739;95;25946;-75
2022/11/02 10:16:50;;;;;;;148.22;97.72;;;;;;;18.78;64.38;97607.05;1490835;96;25766;-74
2022/11/02 10:19:20;;;;;;;52.48;34.63;;;;;;;19.01;63.94;97608.09;1523065;94;28236;-75
2022/11/02 10:21:51;;;;;;;347.40;265.35;;;;;;;19.18;62.47;97605.77;1525162;93;25782;-74
2022/11/02 10:24:25;;;;;;;46.83;30.17;;;;;;;19.23;61.80;97608.53;1525492;94;25770;-75
2022/11/02 10:26:56;;;;;;;86.92;45.43;;;;;;;19.31;61.13;97598.48;1536335;93;25865;-75
2022/11/02 10:29:40;;;;;;;40.05;19.62;;;;;;;19.38;59.51;97597.16;1517153;93;25679;-76
2022/11/02 10:32:11;;;;;;;5.25;3.47;;;;;;;19.44;58.43;97591.20;1535751;93;27355;-77
2022/11/02 10:34:40;;;;;;;6.83;3.45;;;;;;;19.20;58.64;97596.77;1538647;93;25797;-75
2022/11/02 10:37:30;;;;;;;5.65;2.80;;;;;;;19.15;58.24;97604.38;1538505;93;25799;-74
2022/11/02 10:40:19;;;;;;;11.50;5.28;;;;;;;18.91;56.90;97597.06;1541134;91;26621;-76
2022/11/02 10:43:23;;;;;;;10.20;4.60;;;;;;;19.02;57.82;97591.95;1515063;94;25835;-76
2022/11/02 10:46:07;;;;;;;12.65;5.95;;;;;;;19.12;56.88;97590.39;1538875;91;28233;-78
2022/11/02 10:48:48;;;;;;;41.60;17.90;;;;;;;19.34;56.97;97583.72;1527809;92;25767;-79
2022/11/02 10:51:16;;;;;;;15.35;7.87;;;;;;;19.69;57.05;97583.14;1507471;95;25918;-75
2022/11/02 10:53:46;;;;;;;14.63;7.92;;;;;;;20.02;56.29;97575.66;1481181;96;25794;-74
2022/11/02 10:56:31;;;;;;;42.00;15.35;;;;;;;20.14;55.43;97577.08;1481250;96;25892;-77
2022/11/02 10:59:13;;;;;;;17.10;7.70;;;;;;;20.20;54.92;97578.45;1489590;94;27366;-74
2022/11/02 11:01:57;;;;;;;15.10;6.15;;;;;;;20.40;54.52;97578.02;1489585;96;25867;-76
2022/11/02 11:04:27;;;;;;;3.62;2.60;;;;;;;20.54;53.09;97577.48;1483322;96;25900;-76
2022/11/02 11:06:56;;;;;;;4.00;2.42;;;;;;;20.54;53.09;97577.48;1485533;95;25952;-77
2022/11/02 11:09:29;;;;;;;3.75;2.50;;;;;;;20.56;52.32;97578.03;1486830;96;25792;-75
2022/11/02 11:12:10;;;;;;;14.28;8.43;;;;;;;20.56;52.68;97574.75;1486803;96;27441;-74
2022/11/02 11:14:47;;;;;;;6.87;2.77;;;;;;;20.38;50.27;97575.27;1481693;96;25671;-75
2022/11/02 11:17:20;;;;;;;4.75;2.70;;;;;;;20.27;50.73;97571.64;1467106;96;25811;-78
2022/11/02 11:19:50;;;;;;;3.67;2.30;;;;;;;20.29;50.48;97567.23;1465131;97;25695;-74
2022/11/02 11:22:31;;;;;;;6.60;2.62;;;;;;;20.27;51.20;97575.75;1428453;99;25868;-74
2022/11/02 11:25:24;;;;;;;4.55;2.70;;;;;;;20.27;51.20;97575.75;1450864;98;27501;-76
2022/11/02 11:27:54;;;;;;;6.05;4.53;;;;;;;20.51;51.12;97577.50;1484379;96;25871;-76
2022/11/02 11:30:31;;;;;;;4.10;2.50;;;;;;;20.79;50.87;97572.04;1493757;96;26642;-75
2022/11/02 11:33:00;;;;;;;3.90;2.67;;;;;;;20.65;49.36;97568.20;1493697;96;25836;-75
2022/11/02 11:35:38;;;;;;;3.30;2.55;;;;;;;20.65;49.36;97568.20;1493716;96;25868;-74
2022/11/02 11:38:15;;;;;;;3.60;2.50;;;;;;;20.58;49.83;97567.08;1492273;96;27441;-75
2022/11/02 11:40:52;;;;;;;2.92;2.10;;;;;;;20.74;49.68;97568.77;1505458;90;25627;-75
2022/11/02 11:43:22;;;;;;;3.47;2.70;;;;;;;20.93;49.23;97566.30;1575820;90;25919;-75
2022/11/02 11:46:05;;;;;;;3.90;2.35;;;;;;;21.08;48.53;97567.67;1574757;90;25750;-75
2022/11/02 11:48:43;;;;;;;2.85;2.08;;;;;;;20.75;48.11;97559.98;1573555;91;25816;-79
2022/11/02 11:51:36;;;;;;;4.65;2.00;;;;;;;20.75;48.11;97559.98;1573523;91;29415;-75
2022/11/02 11:54:24;;;;;;;4.87;2.10;;;;;;;20.57;46.49;97549.52;1573631;91;25822;-78
2022/11/02 11:57:00;;;;;;;4.12;2.17;;;;;;;20.31;47.70;97554.09;1549436;92;25928;-75
2022/11/02 11:59:45;;;;;;;4.30;2.60;;;;;;;20.28;47.59;97552.73;1467233;97;25838;-75
2022/11/02 12:02:31;;;;;;;5.85;2.65;;;;;;;20.19;47.58;97554.33;1425581;100;26309;-75